createdAt,value
2023-04-06T00:01:57.087Z,17.30
2023-04-06T00:04:24.895Z,17.20
2023-04-06T00:06:52.687Z,17.30
2023-04-06T00:09:20.473Z,17.30
2023-04-06T00:11:49.660Z,17.30
2023-04-06T00:14:18.386Z,17.50
2023-04-06T00:16:46.261Z,17.40
2023-04-06T00:19:14.165Z,17.40
2023-04-06T00:21:42.215Z,17.30
2023-04-06T00:24:10.257Z,17.20
2023-04-06T00:26:38.107Z,16.90
2023-04-06T00:29:08.050Z,17.00
2023-04-06T00:31:36.214Z,17.00
2023-04-06T00:34:04.407Z,17.30
2023-04-06T00:36:32.433Z,17.20
2023-04-06T00:39:00.425Z,17.30
2023-04-06T00:41:28.245Z,17.20
2023-04-06T00:43:56.253Z,16.90
2023-04-06T00:46:25.530Z,17.10
2023-04-06T00:48:53.389Z,16.90
2023-04-06T00:51:21.232Z,17.10
2023-04-06T00:53:49.135Z,17.00
2023-04-06T00:56:16.967Z,17.10
2023-04-06T00:58:51.848Z,17.10
2023-04-06T01:01:19.876Z,17.10
2023-04-06T01:03:51.250Z,16.90
2023-04-06T01:06:20.925Z,17.30
2023-04-06T01:08:57.894Z,17.30
2023-04-06T01:11:27.999Z,17.20
2023-04-06T01:13:56.231Z,17.20
2023-04-06T01:16:38.877Z,17.00
2023-04-06T01:19:21.528Z,17.10
2023-04-06T01:21:54.150Z,17.30
2023-04-06T01:24:43.607Z,17.40
2023-04-06T01:27:23.731Z,17.50
2023-04-06T01:30:20.894Z,17.20
2023-04-06T01:33:01.908Z,17.30
2023-04-06T01:35:50.092Z,17.20
2023-04-06T01:38:21.000Z,17.10
2023-04-06T01:40:51.601Z,16.90
2023-04-06T01:43:22.118Z,17.00
2023-04-06T01:46:04.215Z,17.10
2023-04-06T01:48:36.047Z,17.30
2023-04-06T01:51:11.840Z,17.30
2023-04-06T01:53:49.163Z,17.10
2023-04-06T01:56:18.934Z,17.20
2023-04-06T01:58:56.538Z,17.10
2023-04-06T02:01:25.502Z,17.40
2023-04-06T02:03:57.525Z,17.20
2023-04-06T02:06:25.782Z,17.10
2023-04-06T02:08:53.960Z,16.90
2023-04-06T02:11:23.173Z,17.10
2023-04-06T02:13:55.172Z,16.80
2023-04-06T02:16:25.375Z,17.00
2023-04-06T02:18:53.266Z,16.90
2023-04-06T02:21:21.393Z,16.90
2023-04-06T02:23:50.320Z,17.10
2023-04-06T02:26:19.498Z,17.00
2023-04-06T02:28:48.623Z,17.00
2023-04-06T02:31:17.074Z,17.00
2023-04-06T02:33:46.392Z,17.10
2023-04-06T02:36:16.297Z,17.30
2023-04-06T02:38:44.558Z,16.90
2023-04-06T02:41:12.873Z,17.00
2023-04-06T02:43:41.382Z,17.10
2023-04-06T02:46:25.809Z,17.00
2023-04-06T02:48:53.862Z,17.20
2023-04-06T02:51:21.837Z,17.30
2023-04-06T02:53:55.271Z,17.00
2023-04-06T02:56:23.416Z,16.90
2023-04-06T02:58:52.801Z,17.20
2023-04-06T03:01:24.767Z,17.00
2023-04-06T03:03:58.182Z,17.30
2023-04-06T03:06:28.320Z,17.10
2023-04-06T03:09:00.740Z,17.80
2023-04-06T03:11:28.736Z,17.70
2023-04-06T03:13:56.699Z,17.50
2023-04-06T03:16:25.968Z,17.80
2023-04-06T03:18:54.298Z,18.00
2023-04-06T03:21:23.082Z,18.20
2023-04-06T03:23:53.569Z,18.10
2023-04-06T03:26:22.529Z,18.10
2023-04-06T03:28:52.596Z,18.20
2023-04-06T03:31:24.904Z,18.20
2023-04-06T03:34:08.434Z,18.20
2023-04-06T03:36:37.977Z,18.20
2023-04-06T03:39:06.900Z,18.40
2023-04-06T03:41:38.225Z,18.50
2023-04-06T03:44:21.661Z,18.50
2023-04-06T03:46:51.015Z,18.50
2023-04-06T03:49:19.689Z,18.60
2023-04-06T03:51:51.167Z,18.60
2023-04-06T03:54:19.028Z,18.50
2023-04-06T03:56:46.836Z,18.50
2023-04-06T03:59:14.646Z,18.50
2023-04-06T04:01:42.548Z,18.50
2023-04-06T04:04:12.183Z,18.40
2023-04-06T04:06:40.234Z,18.40
2023-04-06T04:09:10.635Z,18.30
2023-04-06T04:11:38.574Z,18.40
2023-04-06T04:14:06.661Z,18.40
2023-04-06T04:16:34.526Z,18.40
2023-04-06T04:19:02.429Z,18.20
2023-04-06T04:21:33.092Z,18.30
2023-04-06T04:24:06.215Z,18.40
2023-04-06T04:26:36.322Z,18.30
2023-04-06T04:29:04.179Z,18.20
2023-04-06T04:31:32.166Z,18.20
2023-04-06T04:34:04.706Z,18.20
2023-04-06T04:36:36.420Z,18.10
2023-04-06T04:39:07.457Z,18.10
2023-04-06T04:41:39.787Z,18.10
2023-04-06T04:44:10.434Z,18.30
2023-04-06T04:46:38.278Z,18.20
2023-04-06T04:49:07.825Z,18.10
2023-04-06T04:51:37.641Z,18.10
2023-04-06T04:54:20.932Z,18.20
2023-04-06T04:56:48.824Z,18.30
2023-04-06T04:59:25.515Z,18.30
2023-04-06T05:02:00.173Z,18.30
2023-04-06T05:04:37.747Z,18.20
2023-04-06T05:07:09.672Z,18.20
2023-04-06T05:09:39.902Z,18.20
2023-04-06T05:12:08.901Z,18.20
2023-04-06T05:14:44.060Z,18.20
2023-04-06T05:17:16.234Z,18.30
2023-04-06T05:19:44.048Z,18.30
2023-04-06T05:22:16.968Z,18.30
2023-04-06T05:24:47.047Z,18.20
2023-04-06T05:27:14.996Z,18.10
2023-04-06T05:29:43.130Z,18.20
2023-04-06T05:32:11.038Z,18.20
2023-04-06T05:34:39.326Z,18.00
2023-04-06T05:37:08.085Z,17.20
2023-04-06T05:39:38.469Z,16.50
2023-04-06T05:42:07.418Z,16.10
2023-04-06T05:44:55.581Z,16.10
2023-04-06T05:47:23.578Z,16.10
2023-04-06T05:49:58.739Z,16.00
2023-04-06T05:52:33.777Z,16.00
2023-04-06T05:55:03.072Z,15.80
2023-04-06T05:57:32.381Z,15.80
2023-04-06T06:00:00.306Z,16.00
2023-04-06T06:02:40.821Z,15.80
2023-04-06T06:05:11.700Z,15.80
2023-04-06T06:07:41.822Z,15.80
2023-04-06T06:10:12.346Z,15.90
2023-04-06T06:12:40.763Z,15.80
2023-04-06T06:15:09.826Z,15.90
2023-04-06T06:17:42.025Z,15.80
2023-04-06T06:20:10.906Z,15.90
2023-04-06T06:22:38.731Z,16.30
2023-04-06T06:25:08.534Z,16.70
2023-04-06T06:27:37.983Z,17.10
2023-04-06T06:30:08.040Z,17.30
2023-04-06T06:32:37.144Z,17.40
2023-04-06T06:35:05.501Z,17.50
2023-04-06T06:37:34.322Z,17.50
2023-04-06T06:40:03.735Z,17.20
2023-04-06T06:42:33.133Z,17.10
2023-04-06T06:45:37.720Z,17.10
2023-04-06T06:48:05.892Z,17.20
2023-04-06T06:50:33.737Z,17.40
2023-04-06T06:53:01.575Z,17.80
2023-04-06T06:55:29.581Z,18.00
2023-04-06T06:57:57.470Z,18.10
2023-04-06T07:00:25.491Z,18.20
2023-04-06T07:02:55.770Z,18.20
2023-04-06T07:05:28.772Z,18.20
2023-04-06T07:07:58.857Z,18.30
2023-04-06T07:10:28.570Z,18.30
2023-04-06T07:12:56.456Z,18.30
2023-04-06T07:15:24.659Z,18.10
2023-04-06T07:17:53.343Z,18.00
2023-04-06T07:20:22.763Z,17.90
2023-04-06T07:22:50.658Z,17.60
2023-04-06T07:25:18.514Z,17.80
2023-04-06T07:27:46.416Z,17.90
2023-04-06T07:30:14.637Z,18.00
2023-04-06T07:32:42.624Z,18.10
2023-04-06T07:35:10.792Z,18.20
2023-04-06T07:37:40.078Z,18.40
2023-04-06T07:40:10.025Z,18.50
2023-04-06T07:42:38.556Z,18.50
2023-04-06T07:45:09.292Z,18.60
2023-04-06T07:47:37.183Z,18.60
2023-04-06T07:50:06.052Z,18.80
2023-04-06T07:52:35.443Z,18.80
2023-04-06T07:55:07.192Z,18.80
2023-04-06T07:57:35.279Z,18.80
2023-04-06T08:00:04.646Z,18.80
2023-04-06T08:02:40.073Z,18.60
2023-04-06T08:05:08.974Z,18.60
2023-04-06T08:07:37.563Z,18.70
2023-04-06T08:10:07.407Z,18.80
2023-04-06T08:12:35.693Z,18.90
2023-04-06T08:15:04.956Z,19.00
2023-04-06T08:17:34.885Z,19.10
2023-04-06T08:20:04.235Z,19.10
2023-04-06T08:22:32.125Z,19.10
2023-04-06T08:24:59.971Z,19.00
2023-04-06T08:27:29.214Z,19.10
2023-04-06T08:29:57.035Z,19.20
2023-04-06T08:32:24.875Z,19.40
2023-04-06T08:34:56.156Z,19.50
2023-04-06T08:37:24.295Z,19.40
2023-04-06T08:39:52.639Z,19.50
2023-04-06T08:42:22.716Z,19.50
2023-04-06T08:44:53.311Z,19.70
2023-04-06T08:47:24.079Z,19.90
2023-04-06T08:49:53.374Z,19.80
2023-04-06T08:52:22.087Z,20.00
2023-04-06T08:54:49.971Z,20.10
2023-04-06T08:57:20.134Z,20.20
2023-04-06T08:59:48.322Z,20.10
2023-04-06T09:02:20.405Z,20.20
2023-04-06T09:04:51.227Z,20.10
2023-04-06T09:07:19.166Z,20.10
2023-04-06T09:09:49.545Z,20.00
2023-04-06T09:12:27.716Z,20.10
2023-04-06T09:14:56.697Z,20.00
2023-04-06T09:17:27.710Z,20.00
2023-04-06T09:19:56.629Z,20.10
2023-04-06T09:22:25.576Z,20.00
2023-04-06T09:24:54.661Z,20.00
2023-04-06T09:27:32.584Z,20.00
2023-04-06T09:30:07.398Z,19.90
2023-04-06T09:32:47.416Z,20.00
2023-04-06T09:35:15.436Z,19.80
2023-04-06T09:37:43.951Z,19.90
2023-04-06T09:40:21.123Z,19.90
2023-04-06T09:42:56.471Z,20.00
2023-04-06T09:45:27.511Z,20.20
2023-04-06T09:47:57.751Z,20.10
2023-04-06T09:50:27.652Z,20.10
2023-04-06T09:52:58.164Z,20.00
2023-04-06T09:55:31.497Z,20.20
2023-04-06T09:58:06.058Z,20.00
2023-04-06T10:00:42.293Z,20.10
2023-04-06T10:03:20.889Z,20.30
2023-04-06T10:05:53.746Z,20.10
2023-04-06T10:08:30.922Z,20.10
2023-04-06T10:11:01.723Z,19.90
2023-04-06T10:13:29.627Z,20.20
2023-04-06T10:15:58.021Z,19.90
2023-04-06T10:18:27.370Z,19.70
2023-04-06T10:20:59.274Z,19.50
2023-04-06T10:23:34.568Z,19.50
2023-04-06T10:26:03.805Z,19.70
2023-04-06T10:28:35.102Z,19.60
2023-04-06T10:31:04.260Z,19.40
2023-04-06T10:33:33.467Z,18.80
2023-04-06T10:36:12.052Z,18.90
2023-04-06T10:38:44.192Z,18.90
2023-04-06T10:41:13.750Z,18.90
2023-04-06T10:43:42.652Z,18.50
2023-04-06T10:46:13.704Z,18.70
2023-04-06T10:48:44.525Z,19.00
2023-04-06T10:51:14.361Z,18.90
2023-04-06T10:53:44.509Z,19.00
2023-04-06T10:56:13.688Z,19.00
2023-04-06T10:58:47.340Z,18.90
2023-04-06T11:01:17.124Z,19.20
2023-04-06T11:03:47.278Z,19.40
2023-04-06T11:06:21.033Z,19.20
2023-04-06T11:08:49.264Z,19.30
2023-04-06T11:11:19.999Z,19.50
2023-04-06T11:13:52.362Z,19.60
2023-04-06T11:16:21.952Z,19.50
2023-04-06T11:18:53.171Z,19.50
2023-04-06T11:21:21.750Z,19.60
2023-04-06T11:23:49.558Z,19.90
2023-04-06T11:26:17.650Z,20.00
2023-04-06T11:28:45.626Z,20.10
2023-04-06T11:31:13.450Z,20.20
2023-04-06T11:33:41.586Z,20.20
2023-04-06T11:36:11.363Z,20.00
2023-04-06T11:38:41.347Z,20.10
2023-04-06T11:41:09.220Z,20.20
2023-04-06T11:43:37.031Z,20.20
2023-04-06T11:46:07.607Z,20.30
2023-04-06T11:48:46.291Z,20.20
2023-04-06T11:51:24.299Z,20.10
2023-04-06T11:53:52.139Z,20.00
2023-04-06T11:56:26.160Z,19.80
2023-04-06T11:58:54.635Z,19.60
2023-04-06T12:01:22.507Z,19.60
2023-04-06T12:03:50.473Z,19.70
2023-04-06T12:06:20.687Z,19.80
2023-04-06T12:08:48.532Z,20.00
2023-04-06T12:11:16.523Z,19.90
2023-04-06T12:13:44.313Z,19.90
2023-04-06T12:16:12.264Z,20.00
2023-04-06T12:18:40.382Z,19.90
2023-04-06T12:21:08.346Z,20.10
2023-04-06T12:23:37.474Z,20.20
2023-04-06T12:26:05.378Z,19.90
2023-04-06T12:28:33.161Z,19.80
2023-04-06T12:31:01.128Z,19.90
2023-04-06T12:33:29.089Z,20.00
2023-04-06T12:35:57.304Z,19.80
2023-04-06T12:38:25.107Z,20.00
2023-04-06T12:40:54.240Z,20.00
2023-04-06T12:43:22.006Z,20.20
2023-04-06T12:45:49.821Z,20.20
2023-04-06T12:48:17.631Z,19.90
2023-04-06T12:50:45.538Z,19.80
2023-04-06T12:53:13.325Z,19.60
2023-04-06T12:55:41.131Z,19.40
2023-04-06T12:58:10.265Z,19.60
2023-04-06T13:00:38.110Z,19.80
2023-04-06T13:03:05.942Z,19.80
2023-04-06T13:05:33.823Z,19.70
2023-04-06T13:08:01.623Z,19.70
2023-04-06T13:10:29.422Z,19.60
2023-04-06T13:12:57.230Z,19.70
2023-04-06T13:15:26.466Z,19.80
2023-04-06T13:17:55.167Z,19.80
2023-04-06T13:20:25.396Z,19.70
2023-04-06T13:22:53.192Z,19.80
2023-04-06T13:25:21.227Z,19.80
2023-04-06T13:27:49.607Z,19.80
2023-04-06T13:30:18.181Z,19.80
2023-04-06T13:32:47.398Z,19.90
2023-04-06T13:35:15.779Z,19.90
2023-04-06T13:37:43.607Z,19.60
2023-04-06T13:40:12.777Z,19.60
2023-04-06T13:42:41.756Z,19.70
2023-04-06T13:45:10.808Z,19.80
2023-04-06T13:47:38.626Z,20.10
2023-04-06T13:50:09.193Z,20.10
2023-04-06T13:52:37.955Z,20.00
2023-04-06T13:55:06.622Z,20.10
2023-04-06T13:57:34.429Z,20.00
2023-04-06T14:00:05.077Z,19.80
2023-04-06T14:02:35.481Z,19.70
2023-04-06T14:05:04.195Z,19.60
2023-04-06T14:07:33.454Z,19.60
2023-04-06T14:10:01.680Z,19.60
2023-04-06T14:12:29.466Z,19.30
2023-04-06T14:14:57.483Z,19.40
2023-04-06T14:17:25.598Z,19.70
2023-04-06T14:19:53.789Z,19.70
2023-04-06T14:22:21.639Z,19.50
2023-04-06T14:24:50.765Z,19.40
2023-04-06T14:27:18.571Z,19.50
2023-04-06T14:29:46.399Z,19.60
2023-04-06T14:32:14.195Z,19.50
2023-04-06T14:34:42.055Z,19.50
2023-04-06T14:37:09.905Z,19.50
2023-04-06T14:39:37.970Z,19.60
2023-04-06T14:42:07.190Z,19.40
2023-04-06T14:44:37.450Z,19.40
2023-04-06T14:47:06.308Z,19.40
2023-04-06T14:49:34.397Z,19.30
2023-04-06T14:52:02.199Z,19.20
2023-04-06T14:54:30.567Z,19.30
2023-04-06T14:56:58.353Z,19.20
2023-04-06T15:02:00.934Z,19.30
2023-04-06T15:04:28.868Z,19.40
2023-04-06T15:06:56.743Z,19.40
2023-04-06T15:09:24.733Z,19.40
2023-04-06T15:11:52.518Z,19.40
2023-04-06T15:14:20.616Z,19.40
2023-04-06T15:16:49.747Z,19.30
2023-04-06T15:19:17.544Z,19.20
2023-04-06T15:21:45.377Z,19.10
2023-04-06T15:24:13.237Z,19.20
2023-04-06T15:26:41.213Z,19.30
2023-04-06T15:29:09.066Z,19.30
2023-04-06T15:31:38.466Z,19.20
2023-04-06T15:34:09.161Z,19.00
2023-04-06T15:36:37.760Z,18.90
2023-04-06T15:39:09.474Z,19.10
2023-04-06T15:41:37.391Z,19.00
2023-04-06T15:44:05.542Z,19.10
2023-04-06T15:46:33.661Z,19.30
2023-04-06T15:49:01.470Z,19.30
2023-04-06T15:51:31.432Z,19.20
2023-04-06T15:53:59.572Z,19.30
2023-04-06T15:56:27.383Z,19.00
2023-04-06T15:58:55.202Z,19.00
2023-04-06T16:01:22.995Z,19.10
2023-04-06T16:03:50.929Z,18.90
2023-04-06T16:06:18.955Z,18.90
2023-04-06T16:08:48.414Z,18.90
2023-04-06T16:11:16.450Z,18.80
2023-04-06T16:13:47.264Z,18.70
2023-04-06T16:16:21.307Z,18.60
2023-04-06T16:18:49.132Z,18.70
2023-04-06T16:21:17.959Z,19.00
2023-04-06T16:23:47.102Z,19.00
2023-04-06T16:26:18.708Z,18.70
2023-04-06T16:28:47.356Z,18.60
2023-04-06T16:31:20.093Z,18.60
2023-04-06T16:33:48.067Z,18.80
2023-04-06T16:36:16.011Z,18.60
2023-04-06T16:38:43.821Z,18.70
2023-04-06T16:41:12.356Z,18.80
2023-04-06T16:43:41.493Z,18.60
2023-04-06T16:46:09.493Z,18.60
2023-04-06T16:48:37.341Z,18.60
2023-04-06T16:51:06.250Z,18.70
2023-04-06T16:53:34.109Z,18.80
2023-04-06T16:56:04.867Z,18.90
2023-04-06T16:58:33.056Z,18.70
2023-04-06T17:01:02.293Z,18.80
2023-04-06T17:06:18.982Z,18.80
2023-04-06T17:08:48.363Z,18.80
2023-04-06T17:11:20.560Z,18.80
2023-04-06T17:13:50.629Z,18.70
2023-04-06T17:16:20.870Z,18.70
2023-04-06T17:18:48.744Z,18.60
2023-04-06T17:21:16.984Z,18.60
2023-04-06T17:23:46.426Z,18.60
2023-04-06T17:26:14.531Z,18.60
2023-04-06T17:28:42.347Z,18.50
2023-04-06T17:31:11.025Z,18.30
2023-04-06T17:33:41.122Z,18.10
2023-04-06T17:36:11.994Z,18.30
2023-04-06T17:38:43.624Z,18.40
2023-04-06T17:41:11.680Z,18.20
2023-04-06T17:43:39.734Z,17.90
2023-04-06T17:46:07.907Z,17.70
2023-04-06T17:48:35.740Z,17.50
2023-04-06T17:51:05.308Z,17.50
2023-04-06T17:53:34.362Z,17.40
2023-04-06T17:56:04.275Z,17.20
2023-04-06T17:58:32.205Z,17.40
2023-04-06T18:01:00.034Z,17.30
2023-04-06T18:03:28.144Z,17.20
2023-04-06T18:05:57.307Z,17.20
2023-04-06T18:08:26.431Z,17.20
2023-04-06T18:10:54.240Z,17.40
2023-04-06T18:13:22.173Z,17.30
2023-04-06T18:15:50.011Z,17.10
2023-04-06T18:18:17.909Z,17.20
2023-04-06T18:20:45.909Z,17.20
2023-04-06T18:23:13.710Z,17.00
2023-04-06T18:25:43.046Z,17.00
2023-04-06T18:28:11.261Z,17.00
2023-04-06T18:30:39.078Z,16.90
2023-04-06T18:33:07.559Z,17.00
2023-04-06T18:35:35.431Z,16.90
2023-04-06T18:38:03.278Z,16.90
2023-04-06T18:40:35.801Z,16.90
2023-04-06T18:43:07.066Z,17.00
2023-04-06T18:45:35.695Z,17.10
2023-04-06T18:48:03.841Z,17.10
2023-04-06T18:50:31.699Z,17.20
2023-04-06T18:52:59.516Z,17.40
2023-04-06T18:55:27.451Z,17.60
2023-04-06T18:57:55.596Z,17.70
2023-04-06T19:00:24.982Z,17.80
2023-04-06T19:02:52.989Z,17.80
2023-04-06T19:05:22.147Z,17.80
2023-04-06T19:07:52.249Z,17.90
2023-04-06T19:10:20.988Z,17.90
2023-04-06T19:12:48.830Z,18.10
2023-04-06T19:15:16.653Z,18.00
2023-04-06T19:17:45.855Z,17.90
2023-04-06T19:20:13.742Z,17.90
2023-04-06T19:22:41.513Z,17.90
2023-04-06T19:25:09.964Z,17.80
2023-04-06T19:27:39.100Z,17.90
2023-04-06T19:30:09.706Z,18.00
2023-04-06T19:32:38.473Z,18.00
2023-04-06T19:35:08.677Z,17.90
2023-04-06T19:37:37.716Z,17.90
2023-04-06T19:40:07.490Z,17.80
2023-04-06T19:42:36.735Z,17.90
2023-04-06T19:45:04.990Z,17.80
2023-04-06T19:47:32.822Z,17.90
2023-04-06T19:50:00.683Z,17.70
2023-04-06T19:52:30.256Z,17.90
2023-04-06T19:54:59.403Z,18.00
2023-04-06T19:57:27.757Z,18.10
2023-04-06T19:59:56.122Z,18.00
2023-04-06T20:02:24.859Z,18.20
2023-04-06T20:04:52.745Z,18.10
2023-04-06T20:07:20.961Z,18.00
2023-04-06T20:09:50.137Z,18.00
2023-04-06T20:12:18.050Z,17.90
2023-04-06T20:14:46.267Z,17.80
2023-04-06T20:17:14.074Z,17.80
2023-04-06T20:19:41.900Z,17.80
2023-04-06T20:22:09.744Z,18.00
2023-04-06T20:24:37.550Z,17.90
2023-04-06T20:27:06.696Z,17.90
2023-04-06T20:29:34.494Z,17.90
2023-04-06T20:32:02.741Z,17.90
2023-04-06T20:34:31.941Z,17.90
2023-04-06T20:37:00.028Z,17.80
2023-04-06T20:39:28.190Z,18.10
2023-04-06T20:41:57.272Z,18.00
2023-04-06T20:44:26.442Z,18.00
2023-04-06T20:46:54.353Z,17.90
2023-04-06T20:49:23.860Z,17.90
2023-04-06T20:51:52.027Z,17.80
2023-04-06T20:54:20.457Z,17.80
2023-04-06T20:56:48.304Z,17.80
2023-04-06T20:59:16.414Z,17.80
2023-04-06T21:01:45.800Z,17.70
2023-04-06T21:04:13.718Z,17.60
2023-04-06T21:06:41.627Z,17.90
2023-04-06T21:09:10.611Z,18.00
2023-04-06T21:11:38.466Z,17.90
2023-04-06T21:14:06.369Z,18.00
2023-04-06T21:16:34.413Z,17.80
2023-04-06T21:19:03.570Z,17.70
2023-04-06T21:21:31.460Z,17.70
2023-04-06T21:24:00.172Z,17.70
2023-04-06T21:26:28.006Z,17.80
2023-04-06T21:28:56.010Z,17.60
2023-04-06T21:31:23.851Z,17.60
2023-04-06T21:33:51.702Z,17.60
2023-04-06T21:36:20.902Z,17.60
2023-04-06T21:38:48.729Z,17.60
2023-04-06T21:41:16.571Z,17.70
2023-04-06T21:43:44.402Z,17.70
2023-04-06T21:46:12.214Z,17.80
2023-04-06T21:48:40.032Z,17.70
2023-04-06T21:51:07.900Z,17.70
2023-04-06T21:53:37.022Z,17.80
2023-04-06T21:56:05.629Z,17.90
2023-04-06T21:58:33.527Z,17.80
2023-04-06T22:01:01.670Z,17.70
2023-04-06T22:03:29.822Z,17.70
2023-04-06T22:05:57.721Z,17.70
2023-04-06T22:08:33.176Z,17.70
2023-04-06T22:11:08.468Z,17.70
2023-04-06T22:13:36.775Z,17.80
2023-04-06T22:16:04.925Z,17.70
2023-04-06T22:18:32.931Z,17.60
2023-04-06T22:21:01.119Z,17.60
2023-04-06T22:23:28.934Z,17.60
2023-04-06T22:25:57.897Z,17.60
2023-04-06T22:28:27.443Z,17.60
2023-04-06T22:30:55.328Z,17.70
2023-04-06T22:33:23.145Z,17.50
2023-04-06T22:35:51.175Z,17.40
2023-04-06T22:38:19.019Z,17.50
2023-04-06T22:40:46.849Z,17.50
2023-04-06T22:43:14.643Z,17.70
2023-04-06T22:45:43.805Z,17.70
2023-04-06T22:48:11.740Z,17.70
2023-04-06T22:50:39.629Z,17.60
2023-04-06T22:53:07.485Z,17.60
2023-04-06T22:55:35.320Z,17.50
2023-04-06T22:58:03.139Z,17.70
2023-04-06T23:00:31.168Z,17.80
2023-04-06T23:03:01.381Z,17.80
2023-04-06T23:05:29.461Z,17.70
2023-04-06T23:07:57.236Z,17.60
2023-04-06T23:10:25.028Z,17.50
2023-04-06T23:12:52.805Z,17.50
2023-04-06T23:15:20.643Z,17.40
2023-04-06T23:17:48.577Z,17.60
2023-04-06T23:20:17.999Z,17.50
2023-04-06T23:22:46.336Z,17.60
2023-04-06T23:25:14.122Z,17.60
2023-04-06T23:27:41.919Z,17.60
2023-04-06T23:30:10.831Z,17.40
2023-04-06T23:32:38.762Z,17.50
2023-04-06T23:35:07.491Z,17.50
2023-04-06T23:37:36.651Z,17.50
2023-04-06T23:40:04.975Z,17.60
2023-04-06T23:42:32.764Z,17.50
2023-04-06T23:45:00.744Z,17.40
2023-04-06T23:47:28.579Z,17.50
2023-04-06T23:49:56.398Z,17.40
2023-04-06T23:52:24.252Z,17.50
2023-04-06T23:54:53.696Z,17.50
2023-04-06T23:57:21.478Z,17.70
2023-04-06T23:59:49.313Z,17.80
